createdAt,value
2022-09-15T00:00:12.479Z,19.39
2022-09-15T00:03:15.898Z,19.40
2022-09-15T00:06:20.218Z,19.45
2022-09-15T00:09:23.655Z,19.49
2022-09-15T00:12:28.025Z,19.61
2022-09-15T00:15:31.562Z,19.75
2022-09-15T00:18:35.563Z,19.81
2022-09-15T00:21:40.988Z,19.96
2022-09-15T00:24:43.896Z,20.02
2022-09-15T00:27:47.276Z,20.05
2022-09-15T00:30:53.145Z,20.06
2022-09-15T00:33:58.216Z,20.01
2022-09-15T00:37:01.029Z,20.05
2022-09-15T00:40:04.619Z,20.04
2022-09-15T00:43:10.392Z,20.08
2022-09-15T00:46:15.695Z,20.08
2022-09-15T00:49:29.527Z,20.09
2022-09-15T00:52:43.636Z,19.99
2022-09-15T00:55:49.127Z,20.10
2022-09-15T00:58:57.572Z,20.07
2022-09-15T01:02:15.956Z,20.03
2022-09-15T01:05:22.932Z,19.99
2022-09-15T01:08:37.320Z,19.92
2022-09-15T01:11:42.140Z,19.98
2022-09-15T01:14:44.800Z,19.96
2022-09-15T01:18:14.959Z,19.93
2022-09-15T01:21:22.081Z,19.93
2022-09-15T01:24:56.381Z,19.86
2022-09-15T01:28:25.856Z,19.82
2022-09-15T01:32:21.001Z,19.80
2022-09-15T01:35:59.938Z,19.75
2022-09-15T01:39:22.993Z,19.83
2022-09-15T01:42:28.695Z,19.84
2022-09-15T01:45:34.538Z,19.86
2022-09-15T01:48:39.906Z,19.94
2022-09-15T01:51:46.235Z,19.97
2022-09-15T01:54:56.054Z,20.01
2022-09-15T01:57:59.632Z,20.04
2022-09-15T02:01:06.687Z,20.07
2022-09-15T02:04:47.034Z,20.11
2022-09-15T02:08:20.013Z,20.17
2022-09-15T02:11:26.655Z,20.21
2022-09-15T02:14:57.379Z,20.28
2022-09-15T02:18:05.634Z,20.26
2022-09-15T02:21:19.809Z,20.36
2022-09-15T02:24:32.555Z,20.39
2022-09-15T02:27:44.652Z,20.42
2022-09-15T02:30:49.183Z,20.43
2022-09-15T02:33:59.563Z,20.48
2022-09-15T02:37:04.976Z,20.48
2022-09-15T02:40:08.447Z,20.49
2022-09-15T02:43:16.000Z,20.54
2022-09-15T02:46:21.373Z,20.44
2022-09-15T02:49:24.766Z,20.58
2022-09-15T02:52:27.576Z,20.54
2022-09-15T02:55:30.873Z,20.50
2022-09-15T02:58:34.788Z,20.49
2022-09-15T03:01:39.298Z,20.39
2022-09-15T03:04:42.480Z,20.38
2022-09-15T03:07:45.777Z,20.30
2022-09-15T03:10:48.748Z,20.25
2022-09-15T03:14:10.399Z,20.21
2022-09-15T03:17:13.507Z,20.17
2022-09-15T03:20:20.278Z,20.08
2022-09-15T03:23:23.357Z,20.08
2022-09-15T03:26:27.300Z,20.07
2022-09-15T03:29:30.972Z,20.05
2022-09-15T03:32:34.152Z,20.04
2022-09-15T03:35:37.086Z,20.03
2022-09-15T03:38:40.574Z,19.99
2022-09-15T03:41:43.512Z,19.93
2022-09-15T03:44:46.869Z,19.88
2022-09-15T03:47:50.261Z,19.80
2022-09-15T03:50:53.536Z,19.75
2022-09-15T03:53:56.490Z,19.64
2022-09-15T03:57:00.852Z,19.60
2022-09-15T04:00:07.495Z,19.44
2022-09-15T04:03:10.623Z,19.49
2022-09-15T04:06:13.898Z,19.34
2022-09-15T04:09:17.282Z,19.43
2022-09-15T04:12:20.070Z,19.26
2022-09-15T04:15:23.768Z,19.23
2022-09-15T04:18:28.076Z,19.28
2022-09-15T04:21:32.120Z,19.18
2022-09-15T04:24:35.711Z,19.05
2022-09-15T04:27:39.385Z,18.85
2022-09-15T04:30:42.543Z,18.70
2022-09-15T04:33:46.283Z,18.66
2022-09-15T04:36:49.223Z,18.68
2022-09-15T04:39:52.510Z,18.61
2022-09-15T04:42:55.510Z,18.48
2022-09-15T04:45:59.015Z,18.43
2022-09-15T04:49:01.771Z,18.39
2022-09-15T04:52:09.504Z,18.34
2022-09-15T04:55:13.466Z,18.38
2022-09-15T04:58:16.655Z,18.38
2022-09-15T05:01:25.873Z,18.31
2022-09-15T05:04:29.597Z,18.34
2022-09-15T05:07:33.069Z,18.36
2022-09-15T05:10:38.222Z,18.37
2022-09-15T05:13:41.264Z,18.39
2022-09-15T05:16:44.465Z,18.41
2022-09-15T05:19:47.473Z,18.37
2022-09-15T05:22:50.706Z,18.42
2022-09-15T05:26:00.666Z,18.41
2022-09-15T05:29:03.760Z,18.51
2022-09-15T05:32:06.845Z,18.51
2022-09-15T05:35:09.961Z,18.49
2022-09-15T05:38:12.952Z,18.54
2022-09-15T05:41:18.716Z,18.60
2022-09-15T05:44:22.906Z,18.65
2022-09-15T05:47:26.172Z,18.73
2022-09-15T05:50:29.147Z,18.83
2022-09-15T05:53:34.791Z,19.00
2022-09-15T05:56:38.007Z,19.15
2022-09-15T05:59:42.106Z,19.35
2022-09-15T06:02:45.119Z,19.51
2022-09-15T06:05:48.256Z,19.77
2022-09-15T06:08:58.035Z,19.92
2022-09-15T06:12:02.135Z,19.99
2022-09-15T06:15:06.058Z,20.09
2022-09-15T06:18:09.628Z,20.23
2022-09-15T06:21:24.024Z,20.36
2022-09-15T06:24:27.270Z,20.47
2022-09-15T06:27:30.152Z,20.47
2022-09-15T06:30:33.375Z,20.65
2022-09-15T06:33:36.385Z,20.64
2022-09-15T06:36:40.415Z,20.64
2022-09-15T06:39:43.473Z,20.68
2022-09-15T06:42:46.656Z,20.68
2022-09-15T06:45:49.810Z,20.73
2022-09-15T06:48:53.621Z,20.81
2022-09-15T06:51:56.752Z,20.86
2022-09-15T06:55:00.138Z,20.93
2022-09-15T06:58:02.917Z,21.04
2022-09-15T07:01:14.132Z,21.13
2022-09-15T07:04:17.154Z,21.20
2022-09-15T07:07:20.313Z,21.30
2022-09-15T07:10:23.148Z,21.36
2022-09-15T07:13:27.024Z,21.44
2022-09-15T07:16:29.993Z,21.49
2022-09-15T07:19:33.673Z,21.55
2022-09-15T07:22:36.799Z,21.47
2022-09-15T07:25:44.080Z,21.59
2022-09-15T07:28:52.757Z,21.61
2022-09-15T07:31:56.091Z,21.59
2022-09-15T07:34:59.146Z,21.68
2022-09-15T07:38:03.307Z,21.77
2022-09-15T07:41:08.283Z,21.80
2022-09-15T07:44:13.233Z,21.89
2022-09-15T07:47:16.147Z,21.97
2022-09-15T07:50:19.209Z,22.07
2022-09-15T07:53:22.244Z,22.17
2022-09-15T07:56:25.674Z,22.33
2022-09-15T07:59:28.551Z,22.43
2022-09-15T08:02:32.084Z,22.57
2022-09-15T08:05:39.451Z,22.69
2022-09-15T08:08:44.764Z,22.92
2022-09-15T08:11:47.945Z,23.07
2022-09-15T08:14:52.136Z,23.11
2022-09-15T08:17:55.540Z,23.25
2022-09-15T08:20:58.938Z,23.27
2022-09-15T08:24:02.448Z,23.31
2022-09-15T08:27:05.398Z,23.46
2022-09-15T08:30:09.037Z,23.62
2022-09-15T08:33:13.102Z,23.71
2022-09-15T08:36:16.273Z,23.88
2022-09-15T08:39:19.100Z,24.09
2022-09-15T08:42:24.170Z,24.11
2022-09-15T08:45:32.402Z,24.29
2022-09-15T08:49:35.525Z,24.42
2022-09-15T08:53:13.952Z,24.52
2022-09-15T08:56:18.354Z,24.66
2022-09-15T08:59:21.979Z,24.66
2022-09-15T09:02:46.643Z,24.72
2022-09-15T09:05:52.700Z,24.78
2022-09-15T09:09:19.037Z,24.95
2022-09-15T09:12:46.665Z,24.96
2022-09-15T09:16:28.143Z,24.93
2022-09-15T09:20:14.257Z,24.92
2022-09-15T09:23:23.885Z,24.91
2022-09-15T09:26:30.343Z,24.94
2022-09-15T09:29:49.651Z,25.01
2022-09-15T09:33:30.478Z,25.14
2022-09-15T09:36:34.428Z,25.24
2022-09-15T09:39:37.659Z,25.27
2022-09-15T09:42:43.700Z,25.29
2022-09-15T09:45:46.677Z,25.23
2022-09-15T09:48:56.515Z,25.29
2022-09-15T09:52:02.462Z,25.27
2022-09-15T09:55:29.605Z,25.20
2022-09-15T09:58:32.555Z,25.31
2022-09-15T10:01:35.811Z,25.37
2022-09-15T10:04:41.300Z,25.51
2022-09-15T10:07:44.505Z,25.73
2022-09-15T10:10:56.008Z,25.99
2022-09-15T10:13:58.944Z,26.15
2022-09-15T10:17:18.644Z,26.23
2022-09-15T10:20:25.498Z,26.51
2022-09-15T10:23:31.382Z,26.56
2022-09-15T10:26:35.351Z,26.60
2022-09-15T10:29:40.099Z,26.90
2022-09-15T10:32:43.292Z,27.05
2022-09-15T10:35:48.573Z,26.98
2022-09-15T10:39:15.156Z,26.82
2022-09-15T10:43:01.416Z,26.97
2022-09-15T10:46:12.615Z,27.22
2022-09-15T10:49:45.836Z,27.26
2022-09-15T10:53:25.176Z,27.03
2022-09-15T10:56:47.230Z,26.89
2022-09-15T11:00:00.201Z,26.87
2022-09-15T11:03:38.778Z,26.84
2022-09-15T11:06:59.427Z,27.04
2022-09-15T11:10:32.705Z,27.28
2022-09-15T11:13:56.584Z,27.52
2022-09-15T11:17:21.081Z,27.61
2022-09-15T11:20:39.504Z,27.71
2022-09-15T11:24:07.858Z,27.68
2022-09-15T11:27:53.910Z,27.82
2022-09-15T11:31:09.562Z,27.59
2022-09-15T11:34:24.053Z,27.50
2022-09-15T11:37:38.376Z,27.51
2022-09-15T11:40:54.871Z,27.57
2022-09-15T11:44:21.170Z,27.59
2022-09-15T11:47:24.295Z,27.57
2022-09-15T11:50:32.466Z,27.44
2022-09-15T11:53:47.681Z,27.41
2022-09-15T11:56:52.236Z,27.56
2022-09-15T12:00:08.708Z,27.63
2022-09-15T12:03:26.399Z,27.39
2022-09-15T12:06:35.315Z,27.34
2022-09-15T12:09:39.111Z,27.38
2022-09-15T12:12:44.395Z,27.51
2022-09-15T12:15:50.204Z,27.38
2022-09-15T12:19:05.472Z,27.51
2022-09-15T12:22:35.130Z,27.55
2022-09-15T12:25:50.784Z,27.56
2022-09-15T12:29:26.558Z,27.65
2022-09-15T12:32:35.375Z,27.34
2022-09-15T12:35:39.137Z,27.40
2022-09-15T12:38:48.920Z,27.22
2022-09-15T12:42:07.464Z,27.08
2022-09-15T12:45:33.829Z,27.09
2022-09-15T12:48:37.894Z,27.25
2022-09-15T12:51:49.664Z,27.31
2022-09-15T12:55:01.511Z,27.59
2022-09-15T12:58:15.784Z,27.75
2022-09-15T13:01:19.614Z,27.66
2022-09-15T13:04:40.987Z,27.81
2022-09-15T13:07:58.066Z,27.72
2022-09-15T13:11:11.209Z,27.60
2022-09-15T13:14:42.030Z,27.50
2022-09-15T13:17:46.757Z,27.68
2022-09-15T13:21:04.179Z,27.57
2022-09-15T13:24:17.607Z,27.65
2022-09-15T13:27:28.431Z,27.45
2022-09-15T13:30:42.942Z,27.47
2022-09-15T13:41:16.530Z,28.01
2022-09-15T13:44:31.435Z,28.14
2022-09-15T13:47:48.291Z,27.91
2022-09-15T13:51:01.047Z,27.54
2022-09-15T13:54:07.005Z,27.33
2022-09-15T13:57:09.770Z,27.07
2022-09-15T14:00:23.883Z,26.85
2022-09-15T14:03:37.138Z,26.75
2022-09-15T14:06:43.309Z,26.56
2022-09-15T14:09:49.591Z,26.27
2022-09-15T14:12:54.564Z,25.89
2022-09-15T14:16:43.525Z,25.42
2022-09-15T14:19:49.077Z,24.86
2022-09-15T14:22:53.606Z,24.15
2022-09-15T14:26:01.571Z,23.96
2022-09-15T14:29:06.562Z,23.72
2022-09-15T14:32:14.988Z,23.49
2022-09-15T14:35:23.073Z,23.32
2022-09-15T14:38:26.528Z,23.22
2022-09-15T14:41:32.921Z,23.12
2022-09-15T14:48:08.474Z,23.28
2022-09-15T14:51:22.559Z,23.42
2022-09-15T14:54:32.132Z,23.48
2022-09-15T14:57:39.668Z,23.45
2022-09-15T15:01:13.867Z,23.54
2022-09-15T15:04:30.373Z,23.57
2022-09-15T15:07:37.519Z,23.38
2022-09-15T15:10:41.308Z,23.29
2022-09-15T15:13:46.508Z,23.17
2022-09-15T15:17:05.834Z,23.13
2022-09-15T15:20:09.173Z,23.05
2022-09-15T15:23:20.314Z,23.03
2022-09-15T15:26:32.460Z,22.99
2022-09-15T15:29:46.147Z,22.96
2022-09-15T15:32:49.637Z,22.87
2022-09-15T15:36:07.928Z,22.84
2022-09-15T15:39:24.568Z,22.79
2022-09-15T15:42:29.092Z,22.76
2022-09-15T15:45:34.821Z,22.73
2022-09-15T15:48:38.558Z,22.71
2022-09-15T15:51:41.715Z,22.61
2022-09-15T15:54:44.429Z,22.52
2022-09-15T15:57:51.181Z,22.52
2022-09-15T16:00:56.522Z,22.49
2022-09-15T16:03:59.649Z,22.43
2022-09-15T16:07:02.209Z,22.33
2022-09-15T16:10:09.333Z,22.26
2022-09-15T16:13:16.682Z,22.22
2022-09-15T16:16:22.761Z,22.12
2022-09-15T16:19:25.324Z,22.11
2022-09-15T16:22:29.179Z,22.10
2022-09-15T16:25:55.790Z,21.97
2022-09-15T16:29:00.261Z,21.86
2022-09-15T16:32:06.103Z,21.85
2022-09-15T16:35:14.934Z,21.77
2022-09-15T16:38:20.165Z,21.67
2022-09-15T16:41:25.576Z,21.59
2022-09-15T16:44:28.156Z,21.56
2022-09-15T16:47:31.035Z,21.56
2022-09-15T16:50:50.110Z,21.54
2022-09-15T16:54:14.339Z,21.57
2022-09-15T16:57:19.415Z,21.46
2022-09-15T17:00:22.538Z,21.44
2022-09-15T17:03:26.927Z,21.34
2022-09-15T17:06:29.889Z,21.18
2022-09-15T17:09:32.446Z,20.98
2022-09-15T17:12:37.137Z,20.90
2022-09-15T17:15:41.756Z,20.73
2022-09-15T17:18:45.504Z,20.54
2022-09-15T17:21:50.332Z,20.40
2022-09-15T17:24:53.244Z,20.26
2022-09-15T17:27:57.197Z,20.18
2022-09-15T17:31:02.918Z,20.05
2022-09-15T17:34:13.198Z,19.87
2022-09-15T17:37:16.229Z,19.89
2022-09-15T17:40:21.253Z,19.85
2022-09-15T17:43:27.676Z,19.74
2022-09-15T17:46:30.328Z,19.70
2022-09-15T17:49:33.366Z,19.78
2022-09-15T17:52:35.905Z,19.71
2022-09-15T17:55:38.937Z,19.68
2022-09-15T17:58:41.911Z,19.64
2022-09-15T18:01:44.851Z,19.51
2022-09-15T18:04:48.243Z,19.56
2022-09-15T18:07:53.775Z,19.58
2022-09-15T18:10:56.790Z,19.58
2022-09-15T18:13:59.409Z,19.50
2022-09-15T18:17:02.366Z,19.46
2022-09-15T18:20:06.293Z,19.47
2022-09-15T18:23:18.769Z,19.44
2022-09-15T18:26:26.236Z,19.51
2022-09-15T18:29:29.770Z,19.48
2022-09-15T18:32:33.154Z,19.46
2022-09-15T18:35:39.385Z,19.46
2022-09-15T18:38:42.329Z,19.47
2022-09-15T18:41:45.485Z,19.43
2022-09-15T18:44:48.059Z,19.39
2022-09-15T18:47:52.753Z,19.35
2022-09-15T18:50:56.442Z,19.32
2022-09-15T18:53:59.446Z,19.46
2022-09-15T18:57:02.096Z,19.44
2022-09-15T19:00:09.307Z,19.40
2022-09-15T19:03:14.095Z,19.39
2022-09-15T19:06:17.130Z,19.36
2022-09-15T19:09:19.738Z,19.36
2022-09-15T19:12:22.763Z,19.33
2022-09-15T19:15:25.292Z,19.28
2022-09-15T19:18:28.638Z,19.31
2022-09-15T19:21:31.367Z,19.24
2022-09-15T19:24:35.273Z,19.29
2022-09-15T19:27:38.695Z,19.33
2022-09-15T19:30:41.792Z,19.28
2022-09-15T19:33:44.511Z,19.29
2022-09-15T19:36:48.687Z,19.20
2022-09-15T19:39:51.450Z,19.22
2022-09-15T19:42:54.467Z,19.18
2022-09-15T19:45:57.638Z,19.11
2022-09-15T19:49:02.516Z,19.12
2022-09-15T19:52:06.554Z,19.13
2022-09-15T19:55:10.553Z,19.16
2022-09-15T19:58:14.529Z,19.12
2022-09-15T20:01:18.272Z,19.09
2022-09-15T20:04:21.240Z,19.13
2022-09-15T20:07:23.844Z,19.00
2022-09-15T20:10:26.831Z,19.08
2022-09-15T20:13:29.366Z,19.09
2022-09-15T20:16:32.714Z,19.05
2022-09-15T20:19:36.330Z,19.10
2022-09-15T20:22:39.229Z,19.07
2022-09-15T20:25:41.760Z,19.14
2022-09-15T20:28:45.632Z,19.14
2022-09-15T20:31:48.710Z,19.17
2022-09-15T20:34:52.003Z,19.15
2022-09-15T20:37:55.667Z,19.11
2022-09-15T20:40:59.257Z,19.06
2022-09-15T20:44:02.103Z,19.05
2022-09-15T20:47:05.320Z,18.99
2022-09-15T20:50:08.612Z,18.95
2022-09-15T20:53:11.523Z,18.90
2022-09-15T20:56:16.488Z,18.86
2022-09-15T20:59:19.487Z,18.84
2022-09-15T21:02:22.096Z,18.79
2022-09-15T21:05:24.956Z,18.77
2022-09-15T21:08:28.920Z,18.74
2022-09-15T21:11:32.083Z,18.74
2022-09-15T21:14:34.784Z,18.76
2022-09-15T21:17:37.767Z,18.75
2022-09-15T21:20:44.955Z,18.72
2022-09-15T21:23:53.819Z,18.69
2022-09-15T21:27:15.010Z,18.72
2022-09-15T21:30:18.084Z,18.72
2022-09-15T21:33:21.624Z,18.69
2022-09-15T21:36:27.620Z,18.62
2022-09-15T21:39:30.296Z,18.70
2022-09-15T21:42:33.296Z,18.69
2022-09-15T21:45:35.853Z,18.62
2022-09-15T21:48:39.143Z,18.59
2022-09-15T21:51:41.767Z,18.64
2022-09-15T21:54:44.659Z,18.53
2022-09-15T21:57:47.276Z,18.62
2022-09-15T22:00:51.540Z,18.52
2022-09-15T22:03:56.827Z,18.49
2022-09-15T22:06:59.366Z,18.44
2022-09-15T22:10:03.411Z,18.53
2022-09-15T22:13:07.947Z,18.53
2022-09-15T22:16:16.828Z,18.59
2022-09-15T22:19:19.566Z,18.42
2022-09-15T22:22:23.166Z,18.52
2022-09-15T22:25:26.478Z,18.52
2022-09-15T22:28:29.514Z,18.49
2022-09-15T22:31:32.515Z,18.51
2022-09-15T22:34:35.411Z,18.45
2022-09-15T22:37:37.964Z,18.40
2022-09-15T22:40:40.849Z,18.42
2022-09-15T22:43:45.801Z,18.36
2022-09-15T22:46:49.954Z,18.35
2022-09-15T22:49:52.700Z,18.25
2022-09-15T22:52:56.129Z,18.25
2022-09-15T22:56:26.276Z,18.13
2022-09-15T22:59:29.594Z,18.17
2022-09-15T23:02:32.114Z,18.17
2022-09-15T23:05:35.140Z,18.10
2022-09-15T23:08:37.922Z,18.15
2022-09-15T23:11:41.251Z,18.12
2022-09-15T23:14:44.057Z,18.00
2022-09-15T23:17:47.514Z,18.04
2022-09-15T23:20:56.986Z,17.95
2022-09-15T23:24:00.352Z,18.11
2022-09-15T23:27:04.238Z,18.09
2022-09-15T23:30:07.892Z,18.11
2022-09-15T23:33:10.724Z,18.10
2022-09-15T23:36:16.040Z,18.08
2022-09-15T23:39:18.903Z,18.06
2022-09-15T23:42:22.241Z,18.09
2022-09-15T23:45:24.888Z,18.09
2022-09-15T23:48:28.026Z,17.95
2022-09-15T23:51:31.823Z,18.01
2022-09-15T23:54:34.739Z,18.04
2022-09-15T23:57:37.327Z,18.06
